sensor_id;sensor_type;location;lat;lon;timestamp;temperature;humidity
13354;DHT22;6746;50.892;4.064;2023-04-09T00:01:19;7.00;99.90
13354;DHT22;6746;50.892;4.064;2023-04-09T00:03:57;7.00;99.90
13354;DHT22;6746;50.892;4.064;2023-04-09T00:06:45;6.90;99.90
13354;DHT22;6746;50.892;4.064;2023-04-09T00:09:24;6.80;99.90
13354;DHT22;6746;50.892;4.064;2023-04-09T00:12:02;6.80;99.90
13354;DHT22;6746;50.892;4.064;2023-04-09T00:14:50;6.70;99.90
13354;DHT22;6746;50.892;4.064;2023-04-09T00:17:28;6.70;99.90
13354;DHT22;6746;50.892;4.064;2023-04-09T00:20:07;6.70;99.90
13354;DHT22;6746;50.892;4.064;2023-04-09T00:22:45;6.60;99.90
13354;DHT22;6746;50.892;4.064;2023-04-09T00:25:23;6.60;99.90
13354;DHT22;6746;50.892;4.064;2023-04-09T00:28:04;6.50;99.90
13354;DHT22;6746;50.892;4.064;2023-04-09T00:30:42;6.50;99.90
13354;DHT22;6746;50.892;4.064;2023-04-09T00:33:23;6.40;99.90
13354;DHT22;6746;50.892;4.064;2023-04-09T00:36:01;6.40;99.90
13354;DHT22;6746;50.892;4.064;2023-04-09T00:38:43;6.40;99.90
13354;DHT22;6746;50.892;4.064;2023-04-09T00:41:22;6.40;99.90
13354;DHT22;6746;50.892;4.064;2023-04-09T00:44:09;6.40;99.90
13354;DHT22;6746;50.892;4.064;2023-04-09T00:46:48;6.40;99.90
13354;DHT22;6746;50.892;4.064;2023-04-09T00:49:26;6.40;99.90
13354;DHT22;6746;50.892;4.064;2023-04-09T00:52:04;6.40;99.90
13354;DHT22;6746;50.892;4.064;2023-04-09T00:54:42;6.30;99.90
13354;DHT22;6746;50.892;4.064;2023-04-09T00:57:31;6.30;99.90
13354;DHT22;6746;50.892;4.064;2023-04-09T01:00:09;6.30;99.90
13354;DHT22;6746;50.892;4.064;2023-04-09T01:02:47;6.20;99.90
13354;DHT22;6746;50.892;4.064;2023-04-09T01:05:49;6.10;99.90
13354;DHT22;6746;50.892;4.064;2023-04-09T01:11:45;6.00;99.90
13354;DHT22;6746;50.892;4.064;2023-04-09T01:18:09;6.00;99.90
13354;DHT22;6746;50.892;4.064;2023-04-09T01:20:57;5.90;99.90
13354;DHT22;6746;50.892;4.064;2023-04-09T01:24:20;6.00;99.90
13354;DHT22;6746;50.892;4.064;2023-04-09T01:27:07;6.00;99.90
13354;DHT22;6746;50.892;4.064;2023-04-09T01:29:46;5.90;99.90
13354;DHT22;6746;50.892;4.064;2023-04-09T01:32:23;5.90;99.90
13354;DHT22;6746;50.892;4.064;2023-04-09T01:35:01;5.90;99.90
13354;DHT22;6746;50.892;4.064;2023-04-09T01:37:48;5.80;99.90
13354;DHT22;6746;50.892;4.064;2023-04-09T01:40:26;5.80;99.90
13354;DHT22;6746;50.892;4.064;2023-04-09T01:43:14;5.80;99.90
13354;DHT22;6746;50.892;4.064;2023-04-09T01:45:53;5.80;99.90
13354;DHT22;6746;50.892;4.064;2023-04-09T01:48:31;5.70;99.90
13354;DHT22;6746;50.892;4.064;2023-04-09T01:51:09;5.70;99.90
13354;DHT22;6746;50.892;4.064;2023-04-09T01:53:48;5.60;99.90
13354;DHT22;6746;50.892;4.064;2023-04-09T01:56:40;5.60;99.90
13354;DHT22;6746;50.892;4.064;2023-04-09T01:59:21;5.50;99.90
13354;DHT22;6746;50.892;4.064;2023-04-09T02:02:09;5.50;99.90
13354;DHT22;6746;50.892;4.064;2023-04-09T02:04:48;5.50;99.90
13354;DHT22;6746;50.892;4.064;2023-04-09T02:10:15;5.40;99.90
13354;DHT22;6746;50.892;4.064;2023-04-09T02:12:59;5.40;99.90
13354;DHT22;6746;50.892;4.064;2023-04-09T02:15:37;5.40;99.90
13354;DHT22;6746;50.892;4.064;2023-04-09T02:18:24;5.30;99.90
13354;DHT22;6746;50.892;4.064;2023-04-09T02:21:02;5.30;99.90
13354;DHT22;6746;50.892;4.064;2023-04-09T02:23:40;5.20;99.90
13354;DHT22;6746;50.892;4.064;2023-04-09T02:26:18;5.20;99.90
13354;DHT22;6746;50.892;4.064;2023-04-09T02:28:56;5.20;99.90
13354;DHT22;6746;50.892;4.064;2023-04-09T02:31:35;5.20;99.90
13354;DHT22;6746;50.892;4.064;2023-04-09T02:34:13;5.20;99.90
13354;DHT22;6746;50.892;4.064;2023-04-09T02:36:51;5.20;99.90
13354;DHT22;6746;50.892;4.064;2023-04-09T02:39:32;5.30;99.90
13354;DHT22;6746;50.892;4.064;2023-04-09T02:42:10;5.30;99.90
13354;DHT22;6746;50.892;4.064;2023-04-09T02:44:49;5.30;99.90
13354;DHT22;6746;50.892;4.064;2023-04-09T02:47:27;5.30;99.90
13354;DHT22;6746;50.892;4.064;2023-04-09T02:50:15;5.30;99.90
13354;DHT22;6746;50.892;4.064;2023-04-09T02:52:58;5.30;99.90
13354;DHT22;6746;50.892;4.064;2023-04-09T02:55:37;5.30;99.90
13354;DHT22;6746;50.892;4.064;2023-04-09T02:58:23;5.30;99.90
13354;DHT22;6746;50.892;4.064;2023-04-09T03:01:01;5.30;99.90
13354;DHT22;6746;50.892;4.064;2023-04-09T03:03:49;5.20;99.90
13354;DHT22;6746;50.892;4.064;2023-04-09T03:06:37;5.10;99.90
13354;DHT22;6746;50.892;4.064;2023-04-09T03:09:25;5.00;99.90
13354;DHT22;6746;50.892;4.064;2023-04-09T03:12:13;5.00;99.90
13354;DHT22;6746;50.892;4.064;2023-04-09T03:15:02;4.90;99.90
13354;DHT22;6746;50.892;4.064;2023-04-09T03:17:50;4.90;99.90
13354;DHT22;6746;50.892;4.064;2023-04-09T03:20:38;4.90;99.90
13354;DHT22;6746;50.892;4.064;2023-04-09T03:23:26;4.80;99.90
13354;DHT22;6746;50.892;4.064;2023-04-09T03:26:15;4.80;99.90
13354;DHT22;6746;50.892;4.064;2023-04-09T03:29:02;4.80;99.90
13354;DHT22;6746;50.892;4.064;2023-04-09T03:31:40;4.80;99.90
13354;DHT22;6746;50.892;4.064;2023-04-09T03:34:28;4.80;99.90
13354;DHT22;6746;50.892;4.064;2023-04-09T03:37:06;4.80;99.90
13354;DHT22;6746;50.892;4.064;2023-04-09T03:39:44;4.80;99.90
13354;DHT22;6746;50.892;4.064;2023-04-09T03:42:27;4.80;99.90
13354;DHT22;6746;50.892;4.064;2023-04-09T03:45:05;4.80;99.90
13354;DHT22;6746;50.892;4.064;2023-04-09T03:47:48;4.70;99.90
13354;DHT22;6746;50.892;4.064;2023-04-09T03:50:26;4.70;99.90
13354;DHT22;6746;50.892;4.064;2023-04-09T03:53:05;4.70;99.90
13354;DHT22;6746;50.892;4.064;2023-04-09T03:55:43;4.60;99.90
13354;DHT22;6746;50.892;4.064;2023-04-09T03:58:24;4.60;99.90
13354;DHT22;6746;50.892;4.064;2023-04-09T04:01:02;4.60;99.90
13354;DHT22;6746;50.892;4.064;2023-04-09T04:03:46;4.60;99.90
13354;DHT22;6746;50.892;4.064;2023-04-09T04:06:21;4.50;99.90
13354;DHT22;6746;50.892;4.064;2023-04-09T04:09:00;4.50;99.90
13354;DHT22;6746;50.892;4.064;2023-04-09T04:11:38;4.50;99.90
13354;DHT22;6746;50.892;4.064;2023-04-09T04:14:16;4.50;99.90
13354;DHT22;6746;50.892;4.064;2023-04-09T04:16:54;4.50;99.90
13354;DHT22;6746;50.892;4.064;2023-04-09T04:19:32;4.50;99.90
13354;DHT22;6746;50.892;4.064;2023-04-09T04:22:11;4.50;99.90
13354;DHT22;6746;50.892;4.064;2023-04-09T04:24:54;4.50;99.90
13354;DHT22;6746;50.892;4.064;2023-04-09T04:27:32;4.50;99.90
13354;DHT22;6746;50.892;4.064;2023-04-09T04:30:15;4.50;99.90
13354;DHT22;6746;50.892;4.064;2023-04-09T04:32:53;4.50;99.90
13354;DHT22;6746;50.892;4.064;2023-04-09T04:35:34;4.50;99.90
13354;DHT22;6746;50.892;4.064;2023-04-09T04:38:12;4.40;99.90
13354;DHT22;6746;50.892;4.064;2023-04-09T04:40:55;4.50;99.90
13354;DHT22;6746;50.892;4.064;2023-04-09T04:43:34;4.50;99.90
13354;DHT22;6746;50.892;4.064;2023-04-09T04:46:20;4.50;99.90
13354;DHT22;6746;50.892;4.064;2023-04-09T04:48:58;4.50;99.90
13354;DHT22;6746;50.892;4.064;2023-04-09T04:51:46;4.50;99.90
13354;DHT22;6746;50.892;4.064;2023-04-09T04:54:32;4.50;99.90
13354;DHT22;6746;50.892;4.064;2023-04-09T04:57:11;4.50;99.90
13354;DHT22;6746;50.892;4.064;2023-04-09T04:59:45;4.50;99.90
13354;DHT22;6746;50.892;4.064;2023-04-09T05:02:14;4.50;99.90
13354;DHT22;6746;50.892;4.064;2023-04-09T05:04:50;4.60;99.90
13354;DHT22;6746;50.892;4.064;2023-04-09T05:07:19;4.50;99.90
13354;DHT22;6746;50.892;4.064;2023-04-09T05:09:57;4.60;99.90
13354;DHT22;6746;50.892;4.064;2023-04-09T05:12:36;4.60;99.90
13354;DHT22;6746;50.892;4.064;2023-04-09T05:15:14;4.60;99.90
13354;DHT22;6746;50.892;4.064;2023-04-09T05:17:52;4.60;99.90
13354;DHT22;6746;50.892;4.064;2023-04-09T05:20:23;4.70;99.90
13354;DHT22;6746;50.892;4.064;2023-04-09T05:23:02;4.70;99.90
13354;DHT22;6746;50.892;4.064;2023-04-09T05:25:40;4.80;99.90
13354;DHT22;6746;50.892;4.064;2023-04-09T05:28:18;4.80;99.90
13354;DHT22;6746;50.892;4.064;2023-04-09T05:30:56;4.90;99.90
13354;DHT22;6746;50.892;4.064;2023-04-09T05:33:34;5.00;99.90
13354;DHT22;6746;50.892;4.064;2023-04-09T05:36:13;5.00;99.90
13354;DHT22;6746;50.892;4.064;2023-04-09T05:38:37;5.10;99.90
13354;DHT22;6746;50.892;4.064;2023-04-09T05:41:15;5.20;99.90
13354;DHT22;6746;50.892;4.064;2023-04-09T05:44:03;5.30;99.90
13354;DHT22;6746;50.892;4.064;2023-04-09T05:46:32;5.40;99.90
13354;DHT22;6746;50.892;4.064;2023-04-09T05:49:01;5.50;99.90
13354;DHT22;6746;50.892;4.064;2023-04-09T05:51:33;5.50;99.90
13354;DHT22;6746;50.892;4.064;2023-04-09T05:54:02;5.60;99.90
13354;DHT22;6746;50.892;4.064;2023-04-09T05:56:36;5.80;99.90
13354;DHT22;6746;50.892;4.064;2023-04-09T05:59:05;5.90;99.90
13354;DHT22;6746;50.892;4.064;2023-04-09T06:01:44;6.00;99.90
13354;DHT22;6746;50.892;4.064;2023-04-09T06:04:26;6.10;99.90
13354;DHT22;6746;50.892;4.064;2023-04-09T06:06:54;6.10;99.90
13354;DHT22;6746;50.892;4.064;2023-04-09T06:09:31;6.10;99.90
13354;DHT22;6746;50.892;4.064;2023-04-09T06:12:00;6.00;99.90
13354;DHT22;6746;50.892;4.064;2023-04-09T06:14:28;6.00;99.90
13354;DHT22;6746;50.892;4.064;2023-04-09T06:16:58;6.00;99.90
13354;DHT22;6746;50.892;4.064;2023-04-09T06:19:36;6.10;99.90
13354;DHT22;6746;50.892;4.064;2023-04-09T06:22:14;6.20;99.90
13354;DHT22;6746;50.892;4.064;2023-04-09T06:25:02;6.20;99.90
13354;DHT22;6746;50.892;4.064;2023-04-09T06:27:40;6.30;99.90
13354;DHT22;6746;50.892;4.064;2023-04-09T06:30:09;6.50;99.90
13354;DHT22;6746;50.892;4.064;2023-04-09T06:32:38;6.60;99.90
13354;DHT22;6746;50.892;4.064;2023-04-09T06:35:07;6.70;99.90
13354;DHT22;6746;50.892;4.064;2023-04-09T06:37:36;6.80;99.90
13354;DHT22;6746;50.892;4.064;2023-04-09T06:40:08;6.90;99.90
13354;DHT22;6746;50.892;4.064;2023-04-09T06:42:37;7.00;99.90
13354;DHT22;6746;50.892;4.064;2023-04-09T06:45:09;7.10;99.90
13354;DHT22;6746;50.892;4.064;2023-04-09T06:47:41;7.30;99.90
13354;DHT22;6746;50.892;4.064;2023-04-09T06:50:18;7.40;99.90
13354;DHT22;6746;50.892;4.064;2023-04-09T06:52:48;7.60;99.90
13354;DHT22;6746;50.892;4.064;2023-04-09T06:55:20;7.90;99.90
13354;DHT22;6746;50.892;4.064;2023-04-09T06:57:49;8.20;99.90
13354;DHT22;6746;50.892;4.064;2023-04-09T07:00:22;8.40;99.90
13354;DHT22;6746;50.892;4.064;2023-04-09T07:02:51;8.70;99.90
13354;DHT22;6746;50.892;4.064;2023-04-09T07:05:22;9.00;99.90
13354;DHT22;6746;50.892;4.064;2023-04-09T07:07:53;9.30;99.90
13354;DHT22;6746;50.892;4.064;2023-04-09T07:10:25;9.50;99.90
13354;DHT22;6746;50.892;4.064;2023-04-09T07:12:54;9.50;99.90
13354;DHT22;6746;50.892;4.064;2023-04-09T07:15:33;9.50;99.90
13354;DHT22;6746;50.892;4.064;2023-04-09T07:18:01;9.30;99.90
13354;DHT22;6746;50.892;4.064;2023-04-09T07:20:30;9.30;99.90
13354;DHT22;6746;50.892;4.064;2023-04-09T07:22:59;9.50;99.90
13354;DHT22;6746;50.892;4.064;2023-04-09T07:25:28;9.70;99.90
13354;DHT22;6746;50.892;4.064;2023-04-09T07:27:57;10.00;99.90
13354;DHT22;6746;50.892;4.064;2023-04-09T07:30:26;10.10;99.90
13354;DHT22;6746;50.892;4.064;2023-04-09T07:32:55;10.30;99.90
13354;DHT22;6746;50.892;4.064;2023-04-09T07:35:24;10.50;99.90
13354;DHT22;6746;50.892;4.064;2023-04-09T07:37:56;10.60;99.90
13354;DHT22;6746;50.892;4.064;2023-04-09T07:40:24;10.60;99.90
13354;DHT22;6746;50.892;4.064;2023-04-09T07:43:01;10.80;99.90
13354;DHT22;6746;50.892;4.064;2023-04-09T07:45:30;10.90;99.90
13354;DHT22;6746;50.892;4.064;2023-04-09T07:48:08;11.10;99.90
13354;DHT22;6746;50.892;4.064;2023-04-09T07:50:40;11.30;99.90
13354;DHT22;6746;50.892;4.064;2023-04-09T07:53:08;11.50;99.90
13354;DHT22;6746;50.892;4.064;2023-04-09T07:55:45;11.60;99.90
13354;DHT22;6746;50.892;4.064;2023-04-09T07:58:13;11.80;99.90
13354;DHT22;6746;50.892;4.064;2023-04-09T08:00:42;11.90;99.90
13354;DHT22;6746;50.892;4.064;2023-04-09T08:03:10;12.00;99.90
13354;DHT22;6746;50.892;4.064;2023-04-09T08:05:38;12.00;99.90
13354;DHT22;6746;50.892;4.064;2023-04-09T08:08:07;11.90;99.90
13354;DHT22;6746;50.892;4.064;2023-04-09T08:10:43;12.00;99.90
13354;DHT22;6746;50.892;4.064;2023-04-09T08:13:12;12.30;99.90
13354;DHT22;6746;50.892;4.064;2023-04-09T08:15:48;12.40;99.90
13354;DHT22;6746;50.892;4.064;2023-04-09T08:18:16;12.50;99.90
13354;DHT22;6746;50.892;4.064;2023-04-09T08:21:04;12.50;99.90
13354;DHT22;6746;50.892;4.064;2023-04-09T08:23:42;12.70;99.90
13354;DHT22;6746;50.892;4.064;2023-04-09T08:26:20;12.80;99.90
13354;DHT22;6746;50.892;4.064;2023-04-09T08:28:58;13.00;99.90
13354;DHT22;6746;50.892;4.064;2023-04-09T08:31:36;12.90;99.90
13354;DHT22;6746;50.892;4.064;2023-04-09T08:34:08;12.80;99.90
13354;DHT22;6746;50.892;4.064;2023-04-09T08:36:36;13.10;99.90
13354;DHT22;6746;50.892;4.064;2023-04-09T08:39:15;13.30;99.90
13354;DHT22;6746;50.892;4.064;2023-04-09T08:42:02;13.40;99.90
13354;DHT22;6746;50.892;4.064;2023-04-09T08:44:40;13.50;99.90
13354;DHT22;6746;50.892;4.064;2023-04-09T08:47:18;13.50;99.90
13354;DHT22;6746;50.892;4.064;2023-04-09T08:49:56;13.50;99.90
13354;DHT22;6746;50.892;4.064;2023-04-09T08:52:34;13.60;99.90
13354;DHT22;6746;50.892;4.064;2023-04-09T08:55:05;13.70;99.90
13354;DHT22;6746;50.892;4.064;2023-04-09T08:57:40;14.00;99.90
13354;DHT22;6746;50.892;4.064;2023-04-09T09:00:11;14.10;99.90
13354;DHT22;6746;50.892;4.064;2023-04-09T09:03:02;14.20;99.90
13354;DHT22;6746;50.892;4.064;2023-04-09T09:05:45;14.30;99.90
13354;DHT22;6746;50.892;4.064;2023-04-09T09:08:23;14.30;99.90
13354;DHT22;6746;50.892;4.064;2023-04-09T09:10:52;14.20;99.90
13354;DHT22;6746;50.892;4.064;2023-04-09T09:13:30;14.30;99.90
13354;DHT22;6746;50.892;4.064;2023-04-09T09:16:11;14.50;99.90
13354;DHT22;6746;50.892;4.064;2023-04-09T09:18:42;14.70;99.90
13354;DHT22;6746;50.892;4.064;2023-04-09T09:21:17;15.00;99.90
13354;DHT22;6746;50.892;4.064;2023-04-09T09:23:53;15.00;99.90
13354;DHT22;6746;50.892;4.064;2023-04-09T09:26:23;14.90;99.90
13354;DHT22;6746;50.892;4.064;2023-04-09T09:28:54;15.10;99.90
13354;DHT22;6746;50.892;4.064;2023-04-09T09:31:23;15.00;99.90
13354;DHT22;6746;50.892;4.064;2023-04-09T09:33:55;15.10;99.90
13354;DHT22;6746;50.892;4.064;2023-04-09T09:36:30;15.10;99.90
13354;DHT22;6746;50.892;4.064;2023-04-09T09:39:01;15.10;99.90
13354;DHT22;6746;50.892;4.064;2023-04-09T09:41:29;15.40;99.90
13354;DHT22;6746;50.892;4.064;2023-04-09T09:44:01;15.70;99.90
13354;DHT22;6746;50.892;4.064;2023-04-09T09:46:31;15.80;99.90
13354;DHT22;6746;50.892;4.064;2023-04-09T09:49:02;15.70;99.90
13354;DHT22;6746;50.892;4.064;2023-04-09T09:51:32;15.50;99.90
13354;DHT22;6746;50.892;4.064;2023-04-09T09:54:09;15.60;99.90
13354;DHT22;6746;50.892;4.064;2023-04-09T09:56:48;15.50;99.90
13354;DHT22;6746;50.892;4.064;2023-04-09T09:59:29;15.60;99.90
13354;DHT22;6746;50.892;4.064;2023-04-09T10:02:04;15.60;99.90
13354;DHT22;6746;50.892;4.064;2023-04-09T10:04:42;15.50;99.90
13354;DHT22;6746;50.892;4.064;2023-04-09T10:07:11;15.70;99.90
13354;DHT22;6746;50.892;4.064;2023-04-09T10:09:44;15.80;99.90
13354;DHT22;6746;50.892;4.064;2023-04-09T10:12:21;15.90;99.90
13354;DHT22;6746;50.892;4.064;2023-04-09T10:14:50;15.50;99.90
13354;DHT22;6746;50.892;4.064;2023-04-09T10:17:18;15.90;99.90
13354;DHT22;6746;50.892;4.064;2023-04-09T10:20:04;15.90;99.90
13354;DHT22;6746;50.892;4.064;2023-04-09T10:22:30;15.80;99.90
13354;DHT22;6746;50.892;4.064;2023-04-09T10:25:02;15.90;99.90
13354;DHT22;6746;50.892;4.064;2023-04-09T10:27:30;16.00;99.90
13354;DHT22;6746;50.892;4.064;2023-04-09T10:29:59;16.20;99.90
13354;DHT22;6746;50.892;4.064;2023-04-09T10:32:28;16.30;99.90
13354;DHT22;6746;50.892;4.064;2023-04-09T10:35:05;16.20;99.90
13354;DHT22;6746;50.892;4.064;2023-04-09T10:37:34;16.20;99.90
13354;DHT22;6746;50.892;4.064;2023-04-09T10:40:03;16.20;99.90
13354;DHT22;6746;50.892;4.064;2023-04-09T10:42:34;16.30;99.90
13354;DHT22;6746;50.892;4.064;2023-04-09T10:45:10;16.50;99.90
13354;DHT22;6746;50.892;4.064;2023-04-09T10:47:41;16.70;99.90
13354;DHT22;6746;50.892;4.064;2023-04-09T10:50:23;16.80;99.90
13354;DHT22;6746;50.892;4.064;2023-04-09T10:52:53;16.80;99.90
13354;DHT22;6746;50.892;4.064;2023-04-09T10:55:40;16.80;99.90
13354;DHT22;6746;50.892;4.064;2023-04-09T10:58:11;16.70;99.90
13354;DHT22;6746;50.892;4.064;2023-04-09T11:00:41;16.80;99.90
13354;DHT22;6746;50.892;4.064;2023-04-09T11:03:22;16.80;99.90
13354;DHT22;6746;50.892;4.064;2023-04-09T11:06:05;16.80;99.90
13354;DHT22;6746;50.892;4.064;2023-04-09T11:08:43;16.90;99.90
13354;DHT22;6746;50.892;4.064;2023-04-09T11:11:24;17.00;99.90
13354;DHT22;6746;50.892;4.064;2023-04-09T11:13:49;17.00;99.90
13354;DHT22;6746;50.892;4.064;2023-04-09T11:16:18;16.70;99.90
13354;DHT22;6746;50.892;4.064;2023-04-09T11:18:55;16.50;99.90
13354;DHT22;6746;50.892;4.064;2023-04-09T11:21:26;16.50;99.90
13354;DHT22;6746;50.892;4.064;2023-04-09T11:24:08;16.60;99.90
13354;DHT22;6746;50.892;4.064;2023-04-09T11:26:46;16.70;99.90
13354;DHT22;6746;50.892;4.064;2023-04-09T11:29:22;16.80;99.90
13354;DHT22;6746;50.892;4.064;2023-04-09T11:31:56;16.80;99.90
13354;DHT22;6746;50.892;4.064;2023-04-09T11:34:28;16.80;99.90
13354;DHT22;6746;50.892;4.064;2023-04-09T11:36:56;16.60;99.90
13354;DHT22;6746;50.892;4.064;2023-04-09T11:39:28;16.60;99.90
13354;DHT22;6746;50.892;4.064;2023-04-09T11:41:57;16.90;99.90
13354;DHT22;6746;50.892;4.064;2023-04-09T11:44:29;17.10;99.90
13354;DHT22;6746;50.892;4.064;2023-04-09T11:47:00;17.10;99.90
13354;DHT22;6746;50.892;4.064;2023-04-09T11:49:29;17.10;99.90
13354;DHT22;6746;50.892;4.064;2023-04-09T11:51:58;17.20;99.90
13354;DHT22;6746;50.892;4.064;2023-04-09T11:54:32;17.10;99.90
13354;DHT22;6746;50.892;4.064;2023-04-09T11:57:05;17.10;99.90
13354;DHT22;6746;50.892;4.064;2023-04-09T11:59:37;17.20;99.90
13354;DHT22;6746;50.892;4.064;2023-04-09T12:02:06;17.20;99.90
13354;DHT22;6746;50.892;4.064;2023-04-09T12:04:37;17.20;99.90
13354;DHT22;6746;50.892;4.064;2023-04-09T12:07:09;17.20;99.90
13354;DHT22;6746;50.892;4.064;2023-04-09T12:09:47;17.20;99.90
13354;DHT22;6746;50.892;4.064;2023-04-09T12:12:20;17.40;99.90
13354;DHT22;6746;50.892;4.064;2023-04-09T12:14:56;17.40;99.90
13354;DHT22;6746;50.892;4.064;2023-04-09T12:17:35;17.60;99.90
13354;DHT22;6746;50.892;4.064;2023-04-09T12:20:12;17.80;99.90
13354;DHT22;6746;50.892;4.064;2023-04-09T12:22:51;17.90;99.90
13354;DHT22;6746;50.892;4.064;2023-04-09T12:25:30;18.10;99.90
13354;DHT22;6746;50.892;4.064;2023-04-09T12:28:07;18.20;99.90
13354;DHT22;6746;50.892;4.064;2023-04-09T12:30:45;18.10;99.90
13354;DHT22;6746;50.892;4.064;2023-04-09T12:33:33;18.00;99.90
13354;DHT22;6746;50.892;4.064;2023-04-09T12:36:12;17.90;99.90
13354;DHT22;6746;50.892;4.064;2023-04-09T12:38:50;17.90;99.90
13354;DHT22;6746;50.892;4.064;2023-04-09T12:41:28;17.90;99.90
13354;DHT22;6746;50.892;4.064;2023-04-09T12:44:06;17.60;99.90
13354;DHT22;6746;50.892;4.064;2023-04-09T12:46:44;17.70;99.90
13354;DHT22;6746;50.892;4.064;2023-04-09T12:49:22;17.50;99.90
13354;DHT22;6746;50.892;4.064;2023-04-09T12:51:54;17.20;99.90
13354;DHT22;6746;50.892;4.064;2023-04-09T12:54:24;17.20;99.90
13354;DHT22;6746;50.892;4.064;2023-04-09T12:57:02;17.10;99.90
13354;DHT22;6746;50.892;4.064;2023-04-09T12:59:41;17.30;99.90
13354;DHT22;6746;50.892;4.064;2023-04-09T13:02:18;17.50;99.90
13354;DHT22;6746;50.892;4.064;2023-04-09T13:04:46;17.50;99.90
13354;DHT22;6746;50.892;4.064;2023-04-09T13:07:24;17.50;99.90
13354;DHT22;6746;50.892;4.064;2023-04-09T13:09:58;17.80;99.90
13354;DHT22;6746;50.892;4.064;2023-04-09T13:12:27;17.90;99.90
13354;DHT22;6746;50.892;4.064;2023-04-09T13:14:56;17.90;99.90
13354;DHT22;6746;50.892;4.064;2023-04-09T13:17:25;18.10;99.90
13354;DHT22;6746;50.892;4.064;2023-04-09T13:19:54;17.90;99.90
13354;DHT22;6746;50.892;4.064;2023-04-09T13:22:23;17.90;99.90
13354;DHT22;6746;50.892;4.064;2023-04-09T13:24:52;17.80;99.90
13354;DHT22;6746;50.892;4.064;2023-04-09T13:27:21;17.70;99.90
13354;DHT22;6746;50.892;4.064;2023-04-09T13:29:55;17.70;99.90
13354;DHT22;6746;50.892;4.064;2023-04-09T13:32:24;17.70;99.90
13354;DHT22;6746;50.892;4.064;2023-04-09T13:34:58;17.80;99.90
13354;DHT22;6746;50.892;4.064;2023-04-09T13:37:26;17.70;99.90
13354;DHT22;6746;50.892;4.064;2023-04-09T13:39:55;17.60;99.90
13354;DHT22;6746;50.892;4.064;2023-04-09T13:42:24;17.50;99.90
13354;DHT22;6746;50.892;4.064;2023-04-09T13:44:58;17.50;99.90
13354;DHT22;6746;50.892;4.064;2023-04-09T13:47:27;17.70;99.90
13354;DHT22;6746;50.892;4.064;2023-04-09T13:49:56;17.60;99.90
13354;DHT22;6746;50.892;4.064;2023-04-09T13:52:25;17.90;99.90
13354;DHT22;6746;50.892;4.064;2023-04-09T13:55:13;17.90;99.90
13354;DHT22;6746;50.892;4.064;2023-04-09T13:57:52;18.00;99.90
13354;DHT22;6746;50.892;4.064;2023-04-09T14:00:30;17.80;99.90
13354;DHT22;6746;50.892;4.064;2023-04-09T14:03:08;17.70;99.90
13354;DHT22;6746;50.892;4.064;2023-04-09T14:05:47;17.90;99.90
13354;DHT22;6746;50.892;4.064;2023-04-09T14:08:25;18.10;99.90
13354;DHT22;6746;50.892;4.064;2023-04-09T14:11:03;18.30;99.90
13354;DHT22;6746;50.892;4.064;2023-04-09T14:13:41;18.10;99.90
13354;DHT22;6746;50.892;4.064;2023-04-09T14:16:10;18.20;99.90
13354;DHT22;6746;50.892;4.064;2023-04-09T14:18:39;18.20;99.90
13354;DHT22;6746;50.892;4.064;2023-04-09T14:21:16;18.20;99.90
13354;DHT22;6746;50.892;4.064;2023-04-09T14:23:44;18.40;99.90
13354;DHT22;6746;50.892;4.064;2023-04-09T14:26:21;18.30;99.90
13354;DHT22;6746;50.892;4.064;2023-04-09T14:28:50;18.30;99.90
13354;DHT22;6746;50.892;4.064;2023-04-09T14:31:28;18.50;99.90
13354;DHT22;6746;50.892;4.064;2023-04-09T14:33:56;18.60;99.90
13354;DHT22;6746;50.892;4.064;2023-04-09T14:36:25;18.50;99.90
13354;DHT22;6746;50.892;4.064;2023-04-09T14:38:59;18.40;99.90
13354;DHT22;6746;50.892;4.064;2023-04-09T14:41:28;18.30;99.90
13354;DHT22;6746;50.892;4.064;2023-04-09T14:44:05;18.20;99.90
13354;DHT22;6746;50.892;4.064;2023-04-09T14:46:34;18.10;99.90
13354;DHT22;6746;50.892;4.064;2023-04-09T14:49:06;18.10;99.90
13354;DHT22;6746;50.892;4.064;2023-04-09T14:51:35;18.20;99.90
13354;DHT22;6746;50.892;4.064;2023-04-09T14:54:13;18.20;99.90
13354;DHT22;6746;50.892;4.064;2023-04-09T14:56:42;18.20;99.90
13354;DHT22;6746;50.892;4.064;2023-04-09T14:59:11;18.10;99.90
13354;DHT22;6746;50.892;4.064;2023-04-09T15:01:50;18.10;99.90
13354;DHT22;6746;50.892;4.064;2023-04-09T15:04:28;18.20;99.90
13354;DHT22;6746;50.892;4.064;2023-04-09T15:07:06;18.30;99.90
13354;DHT22;6746;50.892;4.064;2023-04-09T15:09:44;18.50;99.90
13354;DHT22;6746;50.892;4.064;2023-04-09T15:12:22;18.40;99.90
13354;DHT22;6746;50.892;4.064;2023-04-09T15:15:03;18.30;99.90
13354;DHT22;6746;50.892;4.064;2023-04-09T15:17:47;18.00;99.90
13354;DHT22;6746;50.892;4.064;2023-04-09T15:20:25;17.90;99.90
13354;DHT22;6746;50.892;4.064;2023-04-09T15:22:54;17.80;99.90
13354;DHT22;6746;50.892;4.064;2023-04-09T15:25:22;17.80;99.90
13354;DHT22;6746;50.892;4.064;2023-04-09T15:28:03;17.70;99.90
13354;DHT22;6746;50.892;4.064;2023-04-09T15:30:41;17.60;99.90
13354;DHT22;6746;50.892;4.064;2023-04-09T15:33:19;17.70;99.90
13354;DHT22;6746;50.892;4.064;2023-04-09T15:35:58;17.80;99.90
13354;DHT22;6746;50.892;4.064;2023-04-09T15:38:36;17.60;99.90
13354;DHT22;6746;50.892;4.064;2023-04-09T15:41:12;17.70;99.90
13354;DHT22;6746;50.892;4.064;2023-04-09T15:43:41;17.70;99.90
13354;DHT22;6746;50.892;4.064;2023-04-09T15:46:19;17.70;99.90
13354;DHT22;6746;50.892;4.064;2023-04-09T15:48:58;17.70;99.90
13354;DHT22;6746;50.892;4.064;2023-04-09T15:51:31;17.80;99.90
13354;DHT22;6746;50.892;4.064;2023-04-09T15:54:00;17.80;99.90
13354;DHT22;6746;50.892;4.064;2023-04-09T15:56:37;17.80;99.90
13354;DHT22;6746;50.892;4.064;2023-04-09T15:59:06;17.90;99.90
13354;DHT22;6746;50.892;4.064;2023-04-09T16:01:42;17.80;99.90
13354;DHT22;6746;50.892;4.064;2023-04-09T16:04:11;17.80;99.90
13354;DHT22;6746;50.892;4.064;2023-04-09T16:06:49;17.70;99.90
13354;DHT22;6746;50.892;4.064;2023-04-09T16:09:32;17.80;99.90
13354;DHT22;6746;50.892;4.064;2023-04-09T16:12:06;17.80;99.90
13354;DHT22;6746;50.892;4.064;2023-04-09T16:14:35;17.70;99.90
13354;DHT22;6746;50.892;4.064;2023-04-09T16:17:13;17.50;99.90
13354;DHT22;6746;50.892;4.064;2023-04-09T16:19:52;17.60;99.90
13354;DHT22;6746;50.892;4.064;2023-04-09T16:22:30;17.50;99.90
13354;DHT22;6746;50.892;4.064;2023-04-09T16:25:08;17.60;99.90
13354;DHT22;6746;50.892;4.064;2023-04-09T16:27:46;17.60;99.90
13354;DHT22;6746;50.892;4.064;2023-04-09T16:30:34;17.40;99.90
13354;DHT22;6746;50.892;4.064;2023-04-09T16:33:12;17.40;99.90
13354;DHT22;6746;50.892;4.064;2023-04-09T16:35:51;17.40;99.90
13354;DHT22;6746;50.892;4.064;2023-04-09T16:38:28;17.30;99.90
13354;DHT22;6746;50.892;4.064;2023-04-09T16:41:05;17.30;99.90
13354;DHT22;6746;50.892;4.064;2023-04-09T16:43:34;17.30;99.90
13354;DHT22;6746;50.892;4.064;2023-04-09T16:46:12;17.20;99.90
13354;DHT22;6746;50.892;4.064;2023-04-09T16:48:45;17.10;99.90
13354;DHT22;6746;50.892;4.064;2023-04-09T16:51:14;17.10;99.90
13354;DHT22;6746;50.892;4.064;2023-04-09T16:53:46;17.10;99.90
13354;DHT22;6746;50.892;4.064;2023-04-09T16:56:15;17.10;99.90
13354;DHT22;6746;50.892;4.064;2023-04-09T16:58:53;17.10;99.90